createdAt,value
2018-06-13T00:02:03.978Z,24.55
2018-06-13T00:06:38.765Z,24.82
2018-06-13T00:11:13.134Z,24.57
2018-06-13T00:15:47.610Z,24.30
2018-06-13T00:20:21.925Z,24.07
2018-06-13T00:24:55.865Z,26.02
2018-06-13T00:29:30.305Z,24.85
2018-06-13T00:34:04.526Z,24.67
2018-06-13T00:38:38.981Z,25.25
2018-06-13T00:43:14.449Z,24.57
2018-06-13T00:47:48.897Z,23.02
2018-06-13T00:52:23.449Z,21.25
2018-06-13T00:56:58.334Z,19.67
2018-06-13T01:01:32.922Z,18.85
2018-06-13T01:06:08.069Z,19.48
2018-06-13T01:10:42.625Z,17.87
2018-06-13T01:15:17.095Z,18.40
2018-06-13T01:19:50.970Z,19.20
2018-06-13T01:24:25.429Z,18.32
2018-06-13T01:28:59.839Z,18.60
2018-06-13T01:33:34.306Z,18.23
2018-06-13T01:38:08.586Z,18.60
2018-06-13T01:42:43.136Z,18.90
2018-06-13T01:47:17.713Z,19.80
2018-06-13T01:51:52.153Z,18.57
2018-06-13T01:56:26.568Z,20.32
2018-06-13T02:01:00.840Z,22.77
2018-06-13T02:05:35.020Z,21.95
2018-06-13T02:10:09.389Z,22.13
2018-06-13T02:14:43.890Z,23.60
2018-06-13T02:19:18.117Z,24.90
2018-06-13T02:23:52.521Z,27.60
2018-06-13T02:28:26.758Z,27.67
2018-06-13T02:33:01.202Z,28.73
2018-06-13T02:37:35.777Z,28.42
2018-06-13T02:42:10.209Z,28.60
2018-06-13T02:46:44.809Z,29.80
2018-06-13T02:51:20.364Z,31.50
2018-06-13T02:55:54.570Z,32.93
2018-06-13T03:00:28.850Z,33.58
2018-06-13T03:05:03.470Z,33.95
2018-06-13T03:09:37.688Z,35.00
2018-06-13T03:14:12.150Z,34.10
2018-06-13T03:18:46.670Z,33.95
2018-06-13T03:23:20.985Z,37.83
2018-06-13T03:27:55.359Z,38.90
2018-06-13T03:32:29.853Z,39.08
2018-06-13T03:37:04.655Z,36.17
2018-06-13T03:41:39.085Z,35.00
2018-06-13T03:46:13.537Z,36.77
2018-06-13T03:50:48.026Z,38.85
2018-06-13T03:55:22.374Z,38.80
2018-06-13T03:59:56.946Z,38.50
2018-06-13T04:04:31.241Z,36.80
2018-06-13T04:09:07.631Z,36.83
2018-06-13T04:13:42.210Z,37.63
2018-06-13T04:18:16.610Z,34.38
2018-06-13T04:22:51.138Z,36.20
2018-06-13T04:27:25.382Z,35.45
2018-06-13T04:31:59.594Z,36.00
2018-06-13T04:36:34.542Z,35.40
2018-06-13T04:41:10.566Z,37.40
2018-06-13T04:45:44.714Z,35.20
2018-06-13T04:50:19.105Z,37.33
2018-06-13T04:54:53.530Z,35.70
2018-06-13T04:59:28.061Z,36.00
2018-06-13T05:04:02.491Z,34.92
2018-06-13T05:08:36.845Z,33.65
2018-06-13T05:13:11.356Z,34.33
2018-06-13T05:17:45.808Z,32.38
2018-06-13T05:22:20.040Z,30.25
2018-06-13T05:26:54.699Z,28.80
2018-06-13T05:31:29.210Z,26.00
2018-06-13T05:36:03.861Z,26.80
2018-06-13T05:40:38.834Z,25.75
2018-06-13T05:45:13.618Z,23.42
2018-06-13T05:49:48.008Z,21.90
2018-06-13T05:54:22.497Z,20.75
2018-06-13T05:58:56.832Z,20.17
2018-06-13T06:03:31.389Z,19.07
2018-06-13T06:08:05.904Z,18.87
2018-06-13T06:12:40.642Z,17.40
2018-06-13T06:17:15.081Z,16.20
2018-06-13T06:21:49.517Z,16.48
2018-06-13T06:26:24.103Z,15.63
2018-06-13T06:30:58.630Z,15.90
2018-06-13T06:35:33.156Z,15.13
2018-06-13T06:40:07.630Z,14.10
2018-06-13T06:44:42.035Z,13.80
2018-06-13T06:49:16.390Z,13.20
2018-06-13T06:53:50.885Z,12.88
2018-06-13T06:58:25.454Z,11.48
2018-06-13T07:03:00.782Z,11.57
2018-06-13T07:07:35.574Z,11.43
2018-06-13T07:12:10.075Z,11.88
2018-06-13T07:16:44.314Z,11.78
2018-06-13T07:21:18.744Z,11.57
2018-06-13T07:25:52.933Z,11.63
2018-06-13T07:30:27.405Z,11.48
2018-06-13T07:35:01.807Z,10.48
2018-06-13T07:39:36.214Z,11.03
2018-06-13T07:44:10.457Z,10.10
2018-06-13T07:48:44.467Z,10.55
2018-06-13T07:53:19.517Z,10.32
2018-06-13T07:57:53.729Z,9.98
2018-06-13T08:02:28.012Z,10.65
2018-06-13T08:07:02.510Z,9.33
2018-06-13T08:11:37.734Z,9.35
2018-06-13T08:16:12.118Z,8.30
2018-06-13T08:20:46.381Z,8.75
2018-06-13T08:25:21.582Z,8.68
2018-06-13T08:29:56.764Z,9.45
2018-06-13T08:34:31.018Z,10.63
2018-06-13T08:39:08.296Z,9.45
2018-06-13T08:43:43.236Z,9.93
2018-06-13T08:48:18.219Z,9.78
2018-06-13T08:52:52.538Z,10.53
2018-06-13T08:57:26.890Z,11.48
2018-06-13T09:02:01.466Z,10.20
2018-06-13T09:06:35.796Z,9.45
2018-06-13T09:11:10.224Z,10.38
2018-06-13T09:15:44.898Z,9.58
2018-06-13T09:20:19.645Z,10.23
2018-06-13T09:24:53.978Z,9.80
2018-06-13T09:29:28.286Z,9.13
2018-06-13T09:34:02.949Z,9.55
2018-06-13T09:38:37.353Z,9.70
2018-06-13T09:43:11.558Z,9.08
2018-06-13T09:47:45.856Z,9.35
2018-06-13T09:52:19.788Z,9.18
2018-06-13T09:56:54.280Z,7.70
2018-06-13T10:01:33.840Z,7.65
2018-06-13T10:06:08.350Z,8.08
2018-06-13T10:10:42.638Z,7.85
2018-06-13T10:15:17.323Z,8.28
2018-06-13T10:19:51.871Z,8.23
2018-06-13T10:24:26.066Z,7.70
2018-06-13T10:29:01.101Z,7.28
2018-06-13T10:33:35.338Z,7.80
2018-06-13T10:38:09.681Z,7.20
2018-06-13T10:42:44.729Z,7.87
2018-06-13T10:47:18.966Z,7.62
2018-06-13T10:51:53.211Z,8.28
2018-06-13T10:56:27.474Z,8.75
2018-06-13T11:01:01.828Z,8.93
2018-06-13T11:05:36.167Z,8.13
2018-06-13T11:10:10.776Z,8.15
2018-06-13T11:14:45.083Z,8.98
2018-06-13T11:19:19.747Z,8.88
2018-06-13T11:23:54.150Z,8.60
2018-06-13T11:28:28.366Z,8.75
2018-06-13T11:33:02.642Z,9.53
2018-06-13T11:37:37.691Z,9.08
2018-06-13T11:42:11.997Z,9.50
2018-06-13T11:46:46.267Z,9.48
2018-06-13T11:51:21.082Z,9.90
2018-06-13T11:55:55.944Z,10.03
2018-06-13T12:00:31.083Z,10.13
2018-06-13T12:05:05.570Z,9.80
2018-06-13T12:09:39.899Z,10.68
2018-06-13T12:14:15.103Z,9.98
2018-06-13T12:18:49.436Z,10.90
2018-06-13T12:23:24.549Z,9.50
2018-06-13T12:27:58.778Z,9.55
2018-06-13T12:32:33.240Z,9.38
2018-06-13T12:37:07.511Z,9.88
2018-06-13T12:41:41.910Z,8.85
2018-06-13T12:46:16.665Z,9.38
2018-06-13T12:50:51.779Z,9.10
2018-06-13T12:55:26.062Z,8.93
2018-06-13T13:00:00.400Z,9.20
2018-06-13T13:04:34.920Z,8.90
2018-06-13T13:09:12.443Z,9.45
2018-06-13T13:13:47.493Z,8.50
2018-06-13T13:18:21.977Z,8.90
2018-06-13T13:22:56.250Z,8.13
2018-06-13T13:27:30.705Z,8.18
2018-06-13T13:32:06.007Z,8.35
2018-06-13T13:36:40.250Z,8.08
2018-06-13T13:41:14.466Z,8.08
2018-06-13T13:45:48.955Z,7.95
2018-06-13T13:50:23.901Z,8.33
2018-06-13T13:54:58.835Z,8.80
2018-06-13T13:59:33.654Z,9.25
2018-06-13T14:04:07.906Z,9.10
2018-06-13T14:08:42.171Z,8.60
2018-06-13T14:13:16.390Z,9.18
2018-06-13T14:17:50.729Z,8.95
2018-06-13T14:22:25.093Z,9.73
2018-06-13T14:26:59.257Z,9.53
2018-06-13T14:31:33.599Z,9.95
2018-06-13T14:36:07.862Z,9.58
2018-06-13T14:40:42.416Z,9.43
2018-06-13T14:45:16.930Z,9.03
2018-06-13T14:49:51.207Z,9.38
2018-06-13T14:54:25.431Z,9.80
2018-06-13T14:59:05.095Z,10.10
2018-06-13T15:03:40.254Z,9.88
2018-06-13T15:08:15.261Z,10.10
2018-06-13T15:12:49.686Z,10.88
2018-06-13T15:17:23.927Z,9.95
2018-06-13T15:21:58.210Z,10.60
2018-06-13T15:26:33.664Z,10.50
2018-06-13T15:31:07.959Z,10.45
2018-06-13T15:35:42.221Z,10.88
2018-06-13T15:40:16.542Z,10.98
2018-06-13T15:44:51.100Z,10.88
2018-06-13T15:49:25.450Z,11.70
2018-06-13T15:53:59.950Z,11.75
2018-06-13T15:58:34.317Z,10.85
2018-06-13T16:03:08.979Z,10.82
2018-06-13T16:07:43.312Z,10.00
2018-06-13T16:12:17.679Z,9.60
2018-06-13T16:16:51.927Z,9.30
2018-06-13T16:21:26.262Z,8.03
2018-06-13T16:26:00.478Z,8.30
2018-06-13T16:30:34.759Z,8.98
2018-06-13T16:35:09.043Z,8.30
2018-06-13T16:39:43.293Z,8.20
2018-06-13T16:44:17.806Z,8.58
2018-06-13T16:48:51.694Z,8.48
2018-06-13T16:53:52.891Z,10.00
2018-06-13T16:58:27.243Z,9.33
2018-06-13T17:03:01.503Z,9.23
2018-06-13T17:07:36.145Z,9.23
2018-06-13T17:12:10.470Z,9.80
2018-06-13T17:16:44.870Z,8.10
2018-06-13T17:21:19.225Z,8.55
2018-06-13T17:25:53.969Z,8.00
2018-06-13T17:30:28.359Z,8.50
2018-06-13T17:35:03.606Z,8.58
2018-06-13T17:39:37.891Z,9.85
2018-06-13T17:44:12.670Z,8.23
2018-06-13T17:48:47.121Z,8.60
2018-06-13T17:53:21.643Z,9.25
2018-06-13T17:57:56.212Z,8.88
2018-06-13T18:02:30.412Z,9.55
2018-06-13T18:07:05.007Z,9.13
2018-06-13T18:11:39.687Z,9.75
2018-06-13T18:16:14.580Z,9.75
2018-06-13T18:20:49.190Z,9.25
2018-06-13T18:25:23.594Z,9.70
2018-06-13T18:29:58.029Z,9.75
2018-06-13T18:34:32.305Z,9.50
2018-06-13T18:39:10.649Z,8.38
2018-06-13T18:43:45.283Z,8.53
2018-06-13T18:48:19.646Z,8.35
2018-06-13T18:52:54.294Z,8.80
2018-06-13T18:57:28.752Z,9.08
2018-06-13T19:02:03.104Z,8.90
2018-06-13T19:06:37.413Z,9.33
2018-06-13T19:11:12.053Z,8.70
2018-06-13T19:15:46.429Z,7.97
2018-06-13T19:20:20.381Z,8.23
2018-06-13T19:24:54.839Z,8.90
2018-06-13T19:29:29.774Z,8.03
2018-06-13T19:34:04.865Z,8.48
2018-06-13T19:38:39.591Z,9.30
2018-06-13T19:43:19.393Z,7.53
2018-06-13T19:47:59.259Z,9.35
2018-06-13T19:52:39.054Z,9.33
2018-06-13T19:57:13.407Z,9.28
2018-06-13T20:01:47.709Z,8.95
2018-06-13T20:06:22.287Z,9.18
2018-06-13T20:10:56.962Z,9.33
2018-06-13T20:15:36.990Z,8.25
2018-06-13T20:20:11.565Z,8.93
2018-06-13T20:24:51.596Z,9.58
2018-06-13T20:29:31.330Z,9.88
2018-06-13T20:34:06.325Z,10.05
2018-06-13T20:38:41.117Z,9.88
2018-06-13T20:43:15.627Z,10.65
2018-06-13T20:47:50.111Z,10.85
2018-06-13T20:52:24.845Z,9.83
2018-06-13T20:56:59.917Z,9.75
2018-06-13T21:01:34.479Z,9.68
2018-06-13T21:06:09.091Z,8.80
2018-06-13T21:10:43.388Z,9.35
2018-06-13T21:15:18.343Z,9.65
2018-06-13T21:19:52.878Z,9.95
2018-06-13T21:24:27.390Z,9.60
2018-06-13T21:29:01.762Z,10.15
2018-06-13T21:33:36.366Z,10.70
2018-06-13T21:38:10.934Z,9.83
2018-06-13T21:42:45.458Z,9.68
2018-06-13T21:47:19.947Z,9.35
2018-06-13T21:51:54.418Z,10.48
2018-06-13T21:56:28.496Z,11.15
2018-06-13T22:01:02.921Z,10.58
2018-06-13T22:05:37.250Z,10.40
2018-06-13T22:10:11.482Z,11.10
2018-06-13T22:14:46.138Z,10.28
2018-06-13T22:19:21.161Z,10.18
2018-06-13T22:23:55.691Z,10.18
2018-06-13T22:28:30.305Z,10.00
2018-06-13T22:33:04.825Z,9.60
2018-06-13T22:37:39.048Z,10.93
2018-06-13T22:42:13.430Z,10.45
2018-06-13T22:46:48.026Z,9.90
2018-06-13T22:51:22.515Z,10.10
2018-06-13T22:55:56.954Z,9.98
2018-06-13T23:00:42.350Z,10.10
2018-06-13T23:05:16.910Z,10.53
2018-06-13T23:09:51.661Z,10.95
2018-06-13T23:14:26.203Z,11.22
2018-06-13T23:19:00.409Z,11.28
2018-06-13T23:23:35.285Z,11.15
2018-06-13T23:28:09.893Z,11.85
2018-06-13T23:32:44.230Z,11.55
2018-06-13T23:37:18.610Z,11.25
2018-06-13T23:41:52.805Z,11.05
2018-06-13T23:46:27.338Z,11.75
2018-06-13T23:51:01.618Z,11.08
2018-06-13T23:55:35.986Z,10.23
